MSC Ajaccio — 9HA3461 — position and weather

sailwx.info

Track history (hours):
 
Tides and Currents Weather Stations Pressure Air Temp Water Temp Dewpoint Dewpoint Depression Visibility Wind Speed Wind Dir Waves Ship Positions

MSC Ajaccio

Last reported at 2017-Nov-24 01:02 UTC. Time now 2017-Nov-24 14:39 UTC.
Position S 24°48' W 046°57'.

Length 300 m; draft 9.9 m.

Type: Ship (hazmat cat A). MMSI: 229625000.

Date/timePositionNaut miles runAvg speedWind from/ knotsBaromVisibWave heightAir tempDewpointWater temp
2017-Nov-24 01:02S 24°48' W 046°57'011.6
2017-Nov-24 01:00S 24°47' W 046°57'611.6
2017-Nov-24 00:30S 24°44' W 046°52'611.5
2017-Nov-24 00:00S 24°40' W 046°48'611.6
2017-Nov-23 23:30S 24°36' W 046°43'611.5
2017-Nov-23 23:00S 24°32' W 046°39'611.5
2017-Nov-23 22:30S 24°27' W 046°35'611.8
2017-Nov-23 22:00S 24°22' W 046°32'612.2
2017-Nov-23 21:29S 24°16' W 046°29'612.2
2017-Nov-23 21:00S 24°11' W 046°26'612.4
2017-Nov-23 20:30S 24°06' W 046°23'611.8
2017-Nov-23 20:00S 24°00' W 046°20'3 6.2
2017-Nov-23 19:30S 23°58' W 046°18'3 7.0
2017-Nov-23 19:00S 23°55' W 046°20'1 0.2
2017-Nov-23 16:28S 23°55' W 046°21'0 0.0
2017-Nov-23 15:52S 23°55' W 046°21'0 0.0
2017-Nov-23 14:16S 23°55' W 046°21'0 0.0
2017-Nov-23 12:52S 23°55' W 046°21'0 0.0
2017-Nov-23 07:04S 23°55' W 046°21'0 0.0
2017-Nov-23 06:40S 23°55' W 046°21'0 0.0
2017-Nov-23 03:22S 23°55' W 046°21'0 0.0
2017-Nov-23 02:52S 23°55' W 046°21'0 0.0
2017-Nov-22 23:37S 23°55' W 046°21'0 0.0
2017-Nov-22 21:04S 23°55' W 046°21'0 0.1
2017-Nov-22 20:58S 23°55' W 046°21'  
Track history (hours):
 
Tides and Currents Weather Stations Pressure Air Temp Water Temp Dewpoint Dewpoint Depression Visibility Wind Speed Wind Dir Waves Ship Positions

MSC Ajaccio

Last reported at 2017-Nov-24 01:02 UTC. Time now 2017-Nov-24 14:39 UTC.
Position S 24°48' W 046°57'.

Length 300 m; draft 9.9 m.

Type: Ship (hazmat cat A). MMSI: 229625000.

Date/timePositionNaut miles runAvg speedWind from/ knotsBaromVisibWave heightAir tempDewpointWater temp
2017-Nov-24 01:02S 24°48' W 046°57'011.6
2017-Nov-24 01:00S 24°47' W 046°57'611.6
2017-Nov-24 00:30S 24°44' W 046°52'611.5
2017-Nov-24 00:00S 24°40' W 046°48'611.6
2017-Nov-23 23:30S 24°36' W 046°43'611.5
2017-Nov-23 23:00S 24°32' W 046°39'611.5
2017-Nov-23 22:30S 24°27' W 046°35'611.8
2017-Nov-23 22:00S 24°22' W 046°32'612.2
2017-Nov-23 21:29S 24°16' W 046°29'612.2
2017-Nov-23 21:00S 24°11' W 046°26'612.4
2017-Nov-23 20:30S 24°06' W 046°23'611.8
2017-Nov-23 20:00S 24°00' W 046°20'3 6.2
2017-Nov-23 19:30S 23°58' W 046°18'3 7.0
2017-Nov-23 19:00S 23°55' W 046°20'1 0.2
2017-Nov-23 16:28S 23°55' W 046°21'0 0.0
2017-Nov-23 15:52S 23°55' W 046°21'0 0.0
2017-Nov-23 14:16S 23°55' W 046°21'0 0.0
2017-Nov-23 12:52S 23°55' W 046°21'0 0.0
2017-Nov-23 07:04S 23°55' W 046°21'0 0.0
2017-Nov-23 06:40S 23°55' W 046°21'0 0.0
2017-Nov-23 03:22S 23°55' W 046°21'0 0.0
2017-Nov-23 02:52S 23°55' W 046°21'0 0.0
2017-Nov-22 23:37S 23°55' W 046°21'0 0.0
2017-Nov-22 21:04S 23°55' W 046°21'0 0.1
2017-Nov-22 20:58S 23°55' W 046°21'  

Dump ship's entire track history